This is the latest recevied weather packets stored in our database for station/object EB1GOD-1. If no packets are shown the sender has not sent any weather packets the latest 1 day(s).
| Time | Temp. | Humidity | Pressure | Rain* | Wind** | Luminosity | Snow |
|---|---|---|---|---|---|---|---|
| 1777746735 | 16.11° C | 77% | 1152.5 hPa | - | - | - | - |
| 1777745834 | 16.11° C | 76% | 1152.4 hPa | - | - | - | - |
| 1777744934 | 15° C | 82% | 1152.6 hPa | - | - | - | - |
| 1777744034 | 13.89° C | 84% | 1152.8 hPa | - | - | - | - |
| 1777743134 | 16.67° C | 73% | 1152.8 hPa | - | - | - | - |
| 1777742234 | 16.67° C | 75% | 1152.8 hPa | - | - | - | - |
| 1777741334 | 15° C | 80% | 1152.8 hPa | - | - | - | - |
| 1777740422 | 16.67° C | 73% | 1153 hPa | - | - | - | - |
| 1777739522 | 16.67° C | 74% | 1152.9 hPa | - | - | - | - |
| 1777738622 | 16.11° C | 77% | 1152.9 hPa | - | - | - | - |
| 1777737722 | 15.56° C | 79% | 1152.8 hPa | - | - | - | - |
| 1777736822 | 16.67° C | 75% | 1152.9 hPa | - | - | - | - |
| 1777735922 | 16.67° C | 74% | 1152.8 hPa | - | - | - | - |
| 1777735022 | 16.11° C | 77% | 1152.9 hPa | - | - | - | - |
| 1777734121 | 15.56° C | 79% | 1152.9 hPa | - | - | - | - |
| 1777733221 | 16.11° C | 77% | 1152.9 hPa | - | - | - | - |
| 1777732321 | 17.22° C | 76% | 1153.1 hPa | - | - | - | - |
| 1777731421 | 16.67° C | 76% | 1153.3 hPa | - | - | - | - |
| 1777730521 | 16.67° C | 74% | 1153.2 hPa | - | - | - | - |
| 1777729621 | 16.67° C | 75% | 1153.1 hPa | - | - | - | - |
| 1777728721 | 16.67° C | 73% | 1153.2 hPa | - | - | - | - |
| 1777726921 | 16.67° C | 70% | 1152.9 hPa | - | - | - | - |
| 1777726021 | 16.67° C | 71% | 1153 hPa | - | - | - | - |
| 1777725121 | 17.78° C | 70% | 1152.9 hPa | - | - | - | - |
| 1777724228 | 17.22° C | 71% | 1152.8 hPa | - | - | - | - |
* Rain since midnight (hover to see other rain measurements)
** Current wind speed in m/s (hover to see current wind gust speed)